sensor_id;sensor_type;location;lat;lon;timestamp;P1;durP1;ratioP1;P2;durP2;ratioP2
4873;SDS011;2451;49.970;9.068;2023-01-10T00:01:57;4.70;;;1.98;;
4873;SDS011;2451;49.970;9.068;2023-01-10T00:04:22;3.85;;;1.75;;
4873;SDS011;2451;49.970;9.068;2023-01-10T00:06:54;2.95;;;1.80;;
4873;SDS011;2451;49.970;9.068;2023-01-10T00:09:19;2.03;;;1.50;;
4873;SDS011;2451;49.970;9.068;2023-01-10T00:11:45;3.63;;;1.63;;
4873;SDS011;2451;49.970;9.068;2023-01-10T00:14:30;3.55;;;1.77;;
4873;SDS011;2451;49.970;9.068;2023-01-10T00:16:59;3.67;;;2.13;;
4873;SDS011;2451;49.970;9.068;2023-01-10T00:19:25;5.22;;;1.75;;
4873;SDS011;2451;49.970;9.068;2023-01-10T00:21:54;2.80;;;1.60;;
4873;SDS011;2451;49.970;9.068;2023-01-10T00:24:22;3.25;;;1.80;;
4873;SDS011;2451;49.970;9.068;2023-01-10T00:26:50;4.07;;;1.60;;
4873;SDS011;2451;49.970;9.068;2023-01-10T00:29:20;4.38;;;1.77;;
4873;SDS011;2451;49.970;9.068;2023-01-10T00:31:51;3.28;;;1.83;;
4873;SDS011;2451;49.970;9.068;2023-01-10T00:36:47;3.10;;;1.75;;
4873;SDS011;2451;49.970;9.068;2023-01-10T00:39:13;3.72;;;1.77;;
4873;SDS011;2451;49.970;9.068;2023-01-10T00:41:40;3.22;;;1.50;;
4873;SDS011;2451;49.970;9.068;2023-01-10T00:44:25;3.15;;;1.63;;
4873;SDS011;2451;49.970;9.068;2023-01-10T00:46:51;7.70;;;1.95;;
4873;SDS011;2451;49.970;9.068;2023-01-10T00:49:17;2.70;;;1.42;;
4873;SDS011;2451;49.970;9.068;2023-01-10T00:51:43;2.55;;;1.45;;
4873;SDS011;2451;49.970;9.068;2023-01-10T00:54:09;3.47;;;1.30;;
4873;SDS011;2451;49.970;9.068;2023-01-10T00:56:39;3.55;;;1.70;;
4873;SDS011;2451;49.970;9.068;2023-01-10T00:59:08;2.17;;;1.58;;
4873;SDS011;2451;49.970;9.068;2023-01-10T01:01:38;2.80;;;1.48;;
4873;SDS011;2451;49.970;9.068;2023-01-10T01:04:03;4.25;;;1.55;;
4873;SDS011;2451;49.970;9.068;2023-01-10T01:06:32;3.90;;;1.50;;
4873;SDS011;2451;49.970;9.068;2023-01-10T01:08:57;2.28;;;1.38;;
4873;SDS011;2451;49.970;9.068;2023-01-10T01:11:26;3.40;;;2.05;;
4873;SDS011;2451;49.970;9.068;2023-01-10T01:13:51;3.42;;;1.70;;
4873;SDS011;2451;49.970;9.068;2023-01-10T01:16:18;4.13;;;1.63;;
4873;SDS011;2451;49.970;9.068;2023-01-10T01:18:43;4.70;;;1.70;;
4873;SDS011;2451;49.970;9.068;2023-01-10T01:21:09;5.53;;;2.67;;
4873;SDS011;2451;49.970;9.068;2023-01-10T01:23:34;5.57;;;2.03;;
4873;SDS011;2451;49.970;9.068;2023-01-10T01:26:00;5.00;;;1.73;;
4873;SDS011;2451;49.970;9.068;2023-01-10T01:28:26;5.18;;;1.90;;
4873;SDS011;2451;49.970;9.068;2023-01-10T01:30:52;3.28;;;1.50;;
4873;SDS011;2451;49.970;9.068;2023-01-10T01:33:18;3.38;;;1.42;;
4873;SDS011;2451;49.970;9.068;2023-01-10T01:35:44;3.55;;;1.80;;
4873;SDS011;2451;49.970;9.068;2023-01-10T01:38:12;4.35;;;1.70;;
4873;SDS011;2451;49.970;9.068;2023-01-10T01:40:38;4.20;;;1.60;;
4873;SDS011;2451;49.970;9.068;2023-01-10T01:43:10;5.18;;;1.80;;
4873;SDS011;2451;49.970;9.068;2023-01-10T01:45:45;2.70;;;1.40;;
4873;SDS011;2451;49.970;9.068;2023-01-10T01:48:22;1.73;;;1.23;;
4873;SDS011;2451;49.970;9.068;2023-01-10T01:50:59;3.58;;;1.70;;
4873;SDS011;2451;49.970;9.068;2023-01-10T01:53:43;4.68;;;1.50;;
4873;SDS011;2451;49.970;9.068;2023-01-10T01:58:42;2.28;;;1.27;;
4873;SDS011;2451;49.970;9.068;2023-01-10T02:01:12;2.75;;;1.35;;
4873;SDS011;2451;49.970;9.068;2023-01-10T02:03:39;2.45;;;1.50;;
4873;SDS011;2451;49.970;9.068;2023-01-10T02:06:09;2.03;;;1.38;;
4873;SDS011;2451;49.970;9.068;2023-01-10T02:08:36;1.90;;;1.20;;
4873;SDS011;2451;49.970;9.068;2023-01-10T02:11:09;5.93;;;1.92;;
4873;SDS011;2451;49.970;9.068;2023-01-10T02:13:39;1.52;;;1.20;;
4873;SDS011;2451;49.970;9.068;2023-01-10T02:16:07;2.83;;;1.50;;
4873;SDS011;2451;49.970;9.068;2023-01-10T02:18:34;2.70;;;1.13;;
4873;SDS011;2451;49.970;9.068;2023-01-10T02:21:26;3.90;;;1.70;;
4873;SDS011;2451;49.970;9.068;2023-01-10T02:24:20;2.58;;;1.33;;
4873;SDS011;2451;49.970;9.068;2023-01-10T02:32:32;3.60;;;1.55;;
4873;SDS011;2451;49.970;9.068;2023-01-10T02:37:59;3.33;;;1.60;;
4873;SDS011;2451;49.970;9.068;2023-01-10T02:43:22;2.60;;;1.30;;
4873;SDS011;2451;49.970;9.068;2023-01-10T02:48:24;2.10;;;0.98;;
4873;SDS011;2451;49.970;9.068;2023-01-10T02:50:57;3.00;;;1.20;;
4873;SDS011;2451;49.970;9.068;2023-01-10T02:53:40;2.55;;;1.33;;
4873;SDS011;2451;49.970;9.068;2023-01-10T03:11:03;2.33;;;1.25;;
4873;SDS011;2451;49.970;9.068;2023-01-10T03:13:36;1.65;;;1.10;;
4873;SDS011;2451;49.970;9.068;2023-01-10T03:16:04;1.50;;;1.20;;
4873;SDS011;2451;49.970;9.068;2023-01-10T03:18:33;2.67;;;1.42;;
4873;SDS011;2451;49.970;9.068;2023-01-10T03:21:06;2.60;;;1.20;;
4873;SDS011;2451;49.970;9.068;2023-01-10T03:23:34;1.80;;;1.10;;
4873;SDS011;2451;49.970;9.068;2023-01-10T03:26:00;4.82;;;1.38;;
4873;SDS011;2451;49.970;9.068;2023-01-10T03:31:14;2.63;;;1.20;;
4873;SDS011;2451;49.970;9.068;2023-01-10T03:33:45;3.00;;;1.05;;
4873;SDS011;2451;49.970;9.068;2023-01-10T03:41:47;3.05;;;1.27;;
4873;SDS011;2451;49.970;9.068;2023-01-10T03:44:37;2.63;;;1.30;;
4873;SDS011;2451;49.970;9.068;2023-01-10T03:49:45;3.35;;;1.42;;
4873;SDS011;2451;49.970;9.068;2023-01-10T03:52:18;2.47;;;1.30;;
4873;SDS011;2451;49.970;9.068;2023-01-10T03:57:18;6.93;;;2.28;;
4873;SDS011;2451;49.970;9.068;2023-01-10T03:59:49;4.82;;;2.08;;
4873;SDS011;2451;49.970;9.068;2023-01-10T04:02:18;4.93;;;1.52;;
4873;SDS011;2451;49.970;9.068;2023-01-10T04:04:44;5.22;;;2.20;;
4873;SDS011;2451;49.970;9.068;2023-01-10T04:07:10;5.35;;;1.83;;
4873;SDS011;2451;49.970;9.068;2023-01-10T04:09:36;6.88;;;2.35;;
4873;SDS011;2451;49.970;9.068;2023-01-10T04:12:01;5.35;;;1.83;;
4873;SDS011;2451;49.970;9.068;2023-01-10T04:14:27;3.30;;;1.73;;
4873;SDS011;2451;49.970;9.068;2023-01-10T04:16:53;6.55;;;1.80;;
4873;SDS011;2451;49.970;9.068;2023-01-10T04:19:19;3.35;;;1.65;;
4873;SDS011;2451;49.970;9.068;2023-01-10T04:21:45;4.95;;;1.70;;
4873;SDS011;2451;49.970;9.068;2023-01-10T04:24:12;5.10;;;1.73;;
4873;SDS011;2451;49.970;9.068;2023-01-10T04:26:37;5.50;;;1.73;;
4873;SDS011;2451;49.970;9.068;2023-01-10T04:29:03;5.97;;;1.50;;
4873;SDS011;2451;49.970;9.068;2023-01-10T04:31:31;4.20;;;1.48;;
4873;SDS011;2451;49.970;9.068;2023-01-10T04:33:58;5.32;;;1.52;;
4873;SDS011;2451;49.970;9.068;2023-01-10T04:36:24;4.80;;;1.40;;
4873;SDS011;2451;49.970;9.068;2023-01-10T04:38:54;7.40;;;1.65;;
4873;SDS011;2451;49.970;9.068;2023-01-10T04:41:19;6.20;;;1.88;;
4873;SDS011;2451;49.970;9.068;2023-01-10T04:43:45;8.85;;;1.80;;
4873;SDS011;2451;49.970;9.068;2023-01-10T04:46:10;4.07;;;1.45;;
4873;SDS011;2451;49.970;9.068;2023-01-10T04:48:36;3.08;;;1.45;;
4873;SDS011;2451;49.970;9.068;2023-01-10T04:51:02;4.68;;;1.70;;
4873;SDS011;2451;49.970;9.068;2023-01-10T04:53:31;3.08;;;1.50;;
4873;SDS011;2451;49.970;9.068;2023-01-10T04:56:06;4.47;;;1.60;;
4873;SDS011;2451;49.970;9.068;2023-01-10T04:58:34;7.22;;;1.80;;
4873;SDS011;2451;49.970;9.068;2023-01-10T05:01:15;5.65;;;1.42;;
4873;SDS011;2451;49.970;9.068;2023-01-10T05:03:48;8.68;;;1.75;;
4873;SDS011;2451;49.970;9.068;2023-01-10T05:08:41;5.00;;;1.60;;
4873;SDS011;2451;49.970;9.068;2023-01-10T05:11:07;6.57;;;1.52;;
4873;SDS011;2451;49.970;9.068;2023-01-10T05:13:33;6.10;;;1.52;;
4873;SDS011;2451;49.970;9.068;2023-01-10T05:15:58;4.50;;;1.60;;
4873;SDS011;2451;49.970;9.068;2023-01-10T05:18:28;5.18;;;1.30;;
4873;SDS011;2451;49.970;9.068;2023-01-10T05:21:04;4.80;;;1.55;;
4873;SDS011;2451;49.970;9.068;2023-01-10T05:23:31;6.45;;;1.90;;
4873;SDS011;2451;49.970;9.068;2023-01-10T05:25:57;8.45;;;1.85;;
4873;SDS011;2451;49.970;9.068;2023-01-10T05:28:48;8.93;;;2.35;;
4873;SDS011;2451;49.970;9.068;2023-01-10T05:31:14;6.13;;;2.03;;
4873;SDS011;2451;49.970;9.068;2023-01-10T05:33:43;7.78;;;2.00;;
4873;SDS011;2451;49.970;9.068;2023-01-10T05:36:09;7.82;;;2.35;;
4873;SDS011;2451;49.970;9.068;2023-01-10T05:38:35;2.88;;;1.60;;
4873;SDS011;2451;49.970;9.068;2023-01-10T05:41:00;5.78;;;2.05;;
4873;SDS011;2451;49.970;9.068;2023-01-10T05:43:26;6.47;;;2.30;;
4873;SDS011;2451;49.970;9.068;2023-01-10T05:45:52;6.40;;;2.08;;
4873;SDS011;2451;49.970;9.068;2023-01-10T05:48:18;11.18;;;2.45;;
4873;SDS011;2451;49.970;9.068;2023-01-10T05:50:43;6.68;;;2.10;;
4873;SDS011;2451;49.970;9.068;2023-01-10T05:53:09;8.98;;;2.70;;
4873;SDS011;2451;49.970;9.068;2023-01-10T05:55:35;6.70;;;2.17;;
4873;SDS011;2451;49.970;9.068;2023-01-10T05:58:01;4.88;;;2.08;;
4873;SDS011;2451;49.970;9.068;2023-01-10T06:00:27;8.75;;;2.40;;
4873;SDS011;2451;49.970;9.068;2023-01-10T06:02:53;7.85;;;2.67;;
4873;SDS011;2451;49.970;9.068;2023-01-10T06:05:20;7.95;;;2.50;;
4873;SDS011;2451;49.970;9.068;2023-01-10T06:07:45;8.00;;;2.42;;
4873;SDS011;2451;49.970;9.068;2023-01-10T06:10:11;11.18;;;2.40;;
4873;SDS011;2451;49.970;9.068;2023-01-10T06:12:40;6.65;;;2.20;;
4873;SDS011;2451;49.970;9.068;2023-01-10T06:15:06;14.10;;;2.47;;
4873;SDS011;2451;49.970;9.068;2023-01-10T06:17:32;9.48;;;2.55;;
4873;SDS011;2451;49.970;9.068;2023-01-10T06:19:58;8.07;;;2.33;;
4873;SDS011;2451;49.970;9.068;2023-01-10T06:22:23;8.93;;;2.25;;
4873;SDS011;2451;49.970;9.068;2023-01-10T06:24:50;7.75;;;2.20;;
4873;SDS011;2451;49.970;9.068;2023-01-10T06:27:15;6.88;;;2.40;;
4873;SDS011;2451;49.970;9.068;2023-01-10T06:29:42;8.38;;;2.30;;
4873;SDS011;2451;49.970;9.068;2023-01-10T06:32:08;7.07;;;2.38;;
4873;SDS011;2451;49.970;9.068;2023-01-10T06:34:34;10.57;;;2.58;;
4873;SDS011;2451;49.970;9.068;2023-01-10T06:36:59;9.43;;;2.53;;
4873;SDS011;2451;49.970;9.068;2023-01-10T06:39:25;9.43;;;2.67;;
4873;SDS011;2451;49.970;9.068;2023-01-10T06:41:50;7.88;;;3.03;;
4873;SDS011;2451;49.970;9.068;2023-01-10T06:44:16;10.18;;;2.40;;
4873;SDS011;2451;49.970;9.068;2023-01-10T06:46:41;6.80;;;2.42;;
4873;SDS011;2451;49.970;9.068;2023-01-10T06:49:07;5.45;;;2.30;;
4873;SDS011;2451;49.970;9.068;2023-01-10T06:51:32;9.52;;;2.67;;
4873;SDS011;2451;49.970;9.068;2023-01-10T06:53:58;8.25;;;2.90;;
4873;SDS011;2451;49.970;9.068;2023-01-10T06:56:24;9.00;;;2.78;;
4873;SDS011;2451;49.970;9.068;2023-01-10T06:58:49;13.80;;;2.60;;
4873;SDS011;2451;49.970;9.068;2023-01-10T07:01:16;10.57;;;4.13;;
4873;SDS011;2451;49.970;9.068;2023-01-10T07:03:44;10.60;;;3.57;;
4873;SDS011;2451;49.970;9.068;2023-01-10T07:06:09;7.72;;;3.13;;
4873;SDS011;2451;49.970;9.068;2023-01-10T07:08:36;11.02;;;2.83;;
4873;SDS011;2451;49.970;9.068;2023-01-10T07:11:02;9.38;;;2.58;;
4873;SDS011;2451;49.970;9.068;2023-01-10T07:13:28;9.93;;;3.25;;
4873;SDS011;2451;49.970;9.068;2023-01-10T07:16:00;10.73;;;2.75;;
4873;SDS011;2451;49.970;9.068;2023-01-10T07:18:32;13.88;;;2.78;;
4873;SDS011;2451;49.970;9.068;2023-01-10T07:20:58;7.32;;;2.70;;
4873;SDS011;2451;49.970;9.068;2023-01-10T07:23:23;7.93;;;2.38;;
4873;SDS011;2451;49.970;9.068;2023-01-10T07:25:49;10.32;;;2.60;;
4873;SDS011;2451;49.970;9.068;2023-01-10T07:28:15;8.52;;;2.33;;
4873;SDS011;2451;49.970;9.068;2023-01-10T07:30:40;12.35;;;2.80;;
4873;SDS011;2451;49.970;9.068;2023-01-10T07:33:06;10.23;;;2.60;;
4873;SDS011;2451;49.970;9.068;2023-01-10T07:35:32;6.32;;;2.15;;
4873;SDS011;2451;49.970;9.068;2023-01-10T07:37:58;7.95;;;2.63;;
4873;SDS011;2451;49.970;9.068;2023-01-10T07:40:24;9.68;;;2.40;;
4873;SDS011;2451;49.970;9.068;2023-01-10T07:43:00;7.70;;;2.42;;
4873;SDS011;2451;49.970;9.068;2023-01-10T07:45:27;9.73;;;2.65;;
4873;SDS011;2451;49.970;9.068;2023-01-10T07:47:57;10.07;;;2.50;;
4873;SDS011;2451;49.970;9.068;2023-01-10T07:50:24;6.07;;;2.20;;
4873;SDS011;2451;49.970;9.068;2023-01-10T07:52:50;9.02;;;2.85;;
4873;SDS011;2451;49.970;9.068;2023-01-10T07:55:16;7.18;;;2.38;;
4873;SDS011;2451;49.970;9.068;2023-01-10T07:57:42;10.95;;;2.78;;
4873;SDS011;2451;49.970;9.068;2023-01-10T08:00:08;9.48;;;2.40;;
4873;SDS011;2451;49.970;9.068;2023-01-10T08:02:34;9.10;;;2.80;;
4873;SDS011;2451;49.970;9.068;2023-01-10T08:04:59;9.13;;;2.67;;
4873;SDS011;2451;49.970;9.068;2023-01-10T08:07:27;8.27;;;2.60;;
4873;SDS011;2451;49.970;9.068;2023-01-10T08:09:53;11.82;;;2.70;;
4873;SDS011;2451;49.970;9.068;2023-01-10T08:12:19;8.15;;;2.80;;
4873;SDS011;2451;49.970;9.068;2023-01-10T08:14:44;7.28;;;2.75;;
4873;SDS011;2451;49.970;9.068;2023-01-10T08:17:10;6.05;;;2.50;;
4873;SDS011;2451;49.970;9.068;2023-01-10T08:19:36;6.75;;;2.22;;
4873;SDS011;2451;49.970;9.068;2023-01-10T08:22:01;7.53;;;2.40;;
4873;SDS011;2451;49.970;9.068;2023-01-10T08:24:27;9.63;;;2.58;;
4873;SDS011;2451;49.970;9.068;2023-01-10T08:26:52;8.23;;;2.58;;
4873;SDS011;2451;49.970;9.068;2023-01-10T08:29:21;11.30;;;2.80;;
4873;SDS011;2451;49.970;9.068;2023-01-10T08:31:47;8.50;;;3.03;;
4873;SDS011;2451;49.970;9.068;2023-01-10T08:34:12;11.48;;;2.88;;
4873;SDS011;2451;49.970;9.068;2023-01-10T08:36:38;8.55;;;2.92;;
4873;SDS011;2451;49.970;9.068;2023-01-10T08:39:04;12.18;;;2.90;;
4873;SDS011;2451;49.970;9.068;2023-01-10T08:41:29;11.90;;;3.33;;
4873;SDS011;2451;49.970;9.068;2023-01-10T08:43:55;10.10;;;3.45;;
4873;SDS011;2451;49.970;9.068;2023-01-10T08:46:20;10.45;;;3.30;;
4873;SDS011;2451;49.970;9.068;2023-01-10T08:48:46;12.13;;;3.63;;
4873;SDS011;2451;49.970;9.068;2023-01-10T08:51:14;10.88;;;3.13;;
4873;SDS011;2451;49.970;9.068;2023-01-10T08:53:40;11.25;;;2.78;;
4873;SDS011;2451;49.970;9.068;2023-01-10T08:56:06;10.43;;;2.63;;
4873;SDS011;2451;49.970;9.068;2023-01-10T08:58:32;9.77;;;2.92;;
4873;SDS011;2451;49.970;9.068;2023-01-10T09:00:59;15.70;;;3.53;;
4873;SDS011;2451;49.970;9.068;2023-01-10T09:03:28;12.52;;;3.00;;
4873;SDS011;2451;49.970;9.068;2023-01-10T09:05:53;11.90;;;2.95;;
4873;SDS011;2451;49.970;9.068;2023-01-10T09:08:19;9.65;;;3.00;;
4873;SDS011;2451;49.970;9.068;2023-01-10T09:10:45;12.75;;;3.08;;
4873;SDS011;2451;49.970;9.068;2023-01-10T09:13:12;11.75;;;3.08;;
4873;SDS011;2451;49.970;9.068;2023-01-10T09:15:37;13.00;;;3.10;;
4873;SDS011;2451;49.970;9.068;2023-01-10T09:18:04;10.65;;;3.35;;
4873;SDS011;2451;49.970;9.068;2023-01-10T09:20:32;8.27;;;3.00;;
4873;SDS011;2451;49.970;9.068;2023-01-10T09:23:03;12.18;;;3.40;;
4873;SDS011;2451;49.970;9.068;2023-01-10T09:25:43;14.80;;;3.28;;
4873;SDS011;2451;49.970;9.068;2023-01-10T09:30:38;12.18;;;2.70;;
4873;SDS011;2451;49.970;9.068;2023-01-10T09:33:03;15.02;;;3.08;;
4873;SDS011;2451;49.970;9.068;2023-01-10T09:35:30;11.52;;;3.15;;
4873;SDS011;2451;49.970;9.068;2023-01-10T09:37:59;13.30;;;2.92;;
4873;SDS011;2451;49.970;9.068;2023-01-10T09:46:01;13.82;;;3.40;;
4873;SDS011;2451;49.970;9.068;2023-01-10T09:48:44;12.07;;;2.90;;
4873;SDS011;2451;49.970;9.068;2023-01-10T09:51:31;9.05;;;2.90;;
4873;SDS011;2451;49.970;9.068;2023-01-10T09:54:24;14.77;;;3.20;;
4873;SDS011;2451;49.970;9.068;2023-01-10T09:56:52;13.48;;;2.95;;
4873;SDS011;2451;49.970;9.068;2023-01-10T09:59:23;11.88;;;2.95;;
4873;SDS011;2451;49.970;9.068;2023-01-10T10:01:58;12.20;;;3.03;;
4873;SDS011;2451;49.970;9.068;2023-01-10T10:04:32;9.75;;;3.28;;
4873;SDS011;2451;49.970;9.068;2023-01-10T10:09:32;8.60;;;2.20;;
4873;SDS011;2451;49.970;9.068;2023-01-10T10:12:03;8.73;;;2.38;;
4873;SDS011;2451;49.970;9.068;2023-01-10T10:14:58;7.20;;;2.15;;
4873;SDS011;2451;49.970;9.068;2023-01-10T10:23:26;11.70;;;2.15;;
4873;SDS011;2451;49.970;9.068;2023-01-10T10:26:01;11.35;;;2.47;;
4873;SDS011;2451;49.970;9.068;2023-01-10T10:34:47;9.90;;;2.20;;
4873;SDS011;2451;49.970;9.068;2023-01-10T10:37:22;9.40;;;2.25;;
4873;SDS011;2451;49.970;9.068;2023-01-10T10:39:57;9.45;;;2.08;;
4873;SDS011;2451;49.970;9.068;2023-01-10T10:42:27;8.18;;;1.83;;
4873;SDS011;2451;49.970;9.068;2023-01-10T10:45:06;8.27;;;1.90;;
4873;SDS011;2451;49.970;9.068;2023-01-10T10:47:46;11.88;;;2.05;;
4873;SDS011;2451;49.970;9.068;2023-01-10T10:50:18;8.45;;;2.15;;
4873;SDS011;2451;49.970;9.068;2023-01-10T10:52:53;10.40;;;2.42;;
4873;SDS011;2451;49.970;9.068;2023-01-10T10:55:21;6.88;;;1.90;;
4873;SDS011;2451;49.970;9.068;2023-01-10T10:57:53;9.45;;;2.22;;
4873;SDS011;2451;49.970;9.068;2023-01-10T11:00:19;9.30;;;2.10;;
4873;SDS011;2451;49.970;9.068;2023-01-10T11:03:23;10.73;;;2.30;;
4873;SDS011;2451;49.970;9.068;2023-01-10T11:05:49;10.15;;;2.45;;
4873;SDS011;2451;49.970;9.068;2023-01-10T11:08:16;8.80;;;2.28;;
4873;SDS011;2451;49.970;9.068;2023-01-10T11:10:49;9.93;;;2.47;;
4873;SDS011;2451;49.970;9.068;2023-01-10T11:16:03;8.68;;;2.55;;
4873;SDS011;2451;49.970;9.068;2023-01-10T11:18:30;8.75;;;2.28;;
4873;SDS011;2451;49.970;9.068;2023-01-10T11:21:07;11.45;;;2.58;;
4873;SDS011;2451;49.970;9.068;2023-01-10T11:23:50;10.98;;;2.65;;
4873;SDS011;2451;49.970;9.068;2023-01-10T11:29:07;9.98;;;2.30;;
4873;SDS011;2451;49.970;9.068;2023-01-10T11:31:52;11.30;;;2.78;;
4873;SDS011;2451;49.970;9.068;2023-01-10T11:36:59;12.93;;;2.40;;
4873;SDS011;2451;49.970;9.068;2023-01-10T11:39:29;10.60;;;2.90;;
4873;SDS011;2451;49.970;9.068;2023-01-10T11:41:55;11.52;;;2.78;;
4873;SDS011;2451;49.970;9.068;2023-01-10T11:44:24;10.57;;;3.03;;
4873;SDS011;2451;49.970;9.068;2023-01-10T11:46:57;10.20;;;2.47;;
4873;SDS011;2451;49.970;9.068;2023-01-10T11:49:29;10.15;;;2.50;;
4873;SDS011;2451;49.970;9.068;2023-01-10T11:52:03;12.50;;;2.72;;
4873;SDS011;2451;49.970;9.068;2023-01-10T11:54:40;10.55;;;2.60;;
4873;SDS011;2451;49.970;9.068;2023-01-10T11:57:20;9.90;;;2.60;;
4873;SDS011;2451;49.970;9.068;2023-01-10T11:59:52;9.25;;;2.70;;
4873;SDS011;2451;49.970;9.068;2023-01-10T12:02:23;11.80;;;2.72;;
4873;SDS011;2451;49.970;9.068;2023-01-10T12:04:55;8.98;;;2.17;;
4873;SDS011;2451;49.970;9.068;2023-01-10T12:07:23;9.13;;;2.45;;
4873;SDS011;2451;49.970;9.068;2023-01-10T12:12:21;9.55;;;2.78;;
4873;SDS011;2451;49.970;9.068;2023-01-10T12:14:52;9.82;;;2.45;;
4873;SDS011;2451;49.970;9.068;2023-01-10T12:19:47;10.00;;;2.63;;
4873;SDS011;2451;49.970;9.068;2023-01-10T12:22:17;9.25;;;2.70;;
4873;SDS011;2451;49.970;9.068;2023-01-10T12:24:44;14.50;;;2.58;;
4873;SDS011;2451;49.970;9.068;2023-01-10T12:27:12;10.57;;;2.67;;
4873;SDS011;2451;49.970;9.068;2023-01-10T12:29:50;10.38;;;2.95;;
4873;SDS011;2451;49.970;9.068;2023-01-10T12:32:24;11.10;;;2.70;;
4873;SDS011;2451;49.970;9.068;2023-01-10T12:35:03;12.02;;;2.97;;
4873;SDS011;2451;49.970;9.068;2023-01-10T12:37:39;13.90;;;2.88;;
4873;SDS011;2451;49.970;9.068;2023-01-10T12:42:56;15.20;;;3.58;;
4873;SDS011;2451;49.970;9.068;2023-01-10T12:45:46;13.32;;;3.20;;
4873;SDS011;2451;49.970;9.068;2023-01-10T12:50:55;13.20;;;2.83;;
4873;SDS011;2451;49.970;9.068;2023-01-10T12:53:36;15.65;;;3.40;;
4873;SDS011;2451;49.970;9.068;2023-01-10T12:56:05;16.00;;;3.97;;
4873;SDS011;2451;49.970;9.068;2023-01-10T13:01:09;15.70;;;3.67;;
4873;SDS011;2451;49.970;9.068;2023-01-10T13:04:00;14.90;;;3.65;;
4873;SDS011;2451;49.970;9.068;2023-01-10T13:06:34;13.18;;;3.75;;
4873;SDS011;2451;49.970;9.068;2023-01-10T13:09:16;11.25;;;3.08;;
4873;SDS011;2451;49.970;9.068;2023-01-10T13:11:56;15.23;;;3.60;;
4873;SDS011;2451;49.970;9.068;2023-01-10T13:14:29;13.98;;;3.17;;
4873;SDS011;2451;49.970;9.068;2023-01-10T13:17:24;16.40;;;2.72;;
4873;SDS011;2451;49.970;9.068;2023-01-10T13:22:40;15.05;;;3.28;;
4873;SDS011;2451;49.970;9.068;2023-01-10T13:25:18;13.48;;;2.50;;
4873;SDS011;2451;49.970;9.068;2023-01-10T13:27:44;11.00;;;3.13;;
4873;SDS011;2451;49.970;9.068;2023-01-10T13:33:07;13.25;;;2.75;;
4873;SDS011;2451;49.970;9.068;2023-01-10T13:35:46;13.95;;;2.78;;
4873;SDS011;2451;49.970;9.068;2023-01-10T13:38:26;13.65;;;2.90;;
4873;SDS011;2451;49.970;9.068;2023-01-10T13:41:03;12.20;;;3.78;;
4873;SDS011;2451;49.970;9.068;2023-01-10T13:48:41;12.65;;;3.63;;
4873;SDS011;2451;49.970;9.068;2023-01-10T13:51:30;14.05;;;2.75;;
4873;SDS011;2451;49.970;9.068;2023-01-10T13:57:05;13.57;;;2.90;;
4873;SDS011;2451;49.970;9.068;2023-01-10T13:59:59;14.40;;;3.58;;
4873;SDS011;2451;49.970;9.068;2023-01-10T14:02:17;14.60;;;4.10;;
4873;SDS011;2451;49.970;9.068;2023-01-10T14:04:53;11.82;;;2.83;;
4873;SDS011;2451;49.970;9.068;2023-01-10T14:07:26;15.82;;;3.67;;
4873;SDS011;2451;49.970;9.068;2023-01-10T14:10:40;13.70;;;2.92;;
4873;SDS011;2451;49.970;9.068;2023-01-10T14:12:52;17.98;;;3.40;;
4873;SDS011;2451;49.970;9.068;2023-01-10T14:15:43;14.82;;;3.60;;
4873;SDS011;2451;49.970;9.068;2023-01-10T14:23:27;12.00;;;3.28;;
4873;SDS011;2451;49.970;9.068;2023-01-10T14:25:58;9.48;;;3.30;;
4873;SDS011;2451;49.970;9.068;2023-01-10T14:28:28;15.45;;;3.90;;
4873;SDS011;2451;49.970;9.068;2023-01-10T14:33:33;12.23;;;3.00;;
4873;SDS011;2451;49.970;9.068;2023-01-10T14:36:07;12.68;;;3.13;;
4873;SDS011;2451;49.970;9.068;2023-01-10T14:38:38;15.35;;;3.60;;
4873;SDS011;2451;49.970;9.068;2023-01-10T14:41:05;15.80;;;4.50;;
4873;SDS011;2451;49.970;9.068;2023-01-10T14:43:47;18.35;;;4.35;;
4873;SDS011;2451;49.970;9.068;2023-01-10T14:46:21;16.52;;;3.97;;
4873;SDS011;2451;49.970;9.068;2023-01-10T14:48:53;12.38;;;3.38;;
4873;SDS011;2451;49.970;9.068;2023-01-10T14:51:23;15.48;;;4.65;;
4873;SDS011;2451;49.970;9.068;2023-01-10T14:56:24;16.02;;;3.58;;
4873;SDS011;2451;49.970;9.068;2023-01-10T14:59:14;14.43;;;3.58;;
4873;SDS011;2451;49.970;9.068;2023-01-10T15:01:54;12.40;;;4.50;;
4873;SDS011;2451;49.970;9.068;2023-01-10T15:04:22;19.20;;;4.95;;
4873;SDS011;2451;49.970;9.068;2023-01-10T15:06:57;20.70;;;5.00;;
4873;SDS011;2451;49.970;9.068;2023-01-10T15:09:26;16.92;;;5.32;;
4873;SDS011;2451;49.970;9.068;2023-01-10T15:11:53;11.65;;;4.20;;
4873;SDS011;2451;49.970;9.068;2023-01-10T15:14:21;15.93;;;4.47;;
4873;SDS011;2451;49.970;9.068;2023-01-10T15:16:50;18.50;;;5.57;;
4873;SDS011;2451;49.970;9.068;2023-01-10T15:19:19;19.42;;;4.30;;
4873;SDS011;2451;49.970;9.068;2023-01-10T15:21:47;15.70;;;4.28;;
4873;SDS011;2451;49.970;9.068;2023-01-10T15:24:24;16.00;;;3.60;;
4873;SDS011;2451;49.970;9.068;2023-01-10T15:26:58;18.42;;;4.22;;
4873;SDS011;2451;49.970;9.068;2023-01-10T15:29:25;13.65;;;3.70;;
4873;SDS011;2451;49.970;9.068;2023-01-10T15:31:52;23.88;;;4.70;;
4873;SDS011;2451;49.970;9.068;2023-01-10T15:34:22;15.35;;;3.92;;
4873;SDS011;2451;49.970;9.068;2023-01-10T15:36:53;14.95;;;3.75;;
4873;SDS011;2451;49.970;9.068;2023-01-10T15:39:22;19.05;;;6.70;;
4873;SDS011;2451;49.970;9.068;2023-01-10T15:42:02;17.67;;;4.30;;
4873;SDS011;2451;49.970;9.068;2023-01-10T15:44:38;12.95;;;4.25;;
4873;SDS011;2451;49.970;9.068;2023-01-10T15:47:05;12.07;;;3.33;;
4873;SDS011;2451;49.970;9.068;2023-01-10T15:50:14;15.65;;;4.05;;
4873;SDS011;2451;49.970;9.068;2023-01-10T15:52:47;24.20;;;7.65;;
4873;SDS011;2451;49.970;9.068;2023-01-10T15:58:14;14.23;;;4.05;;
4873;SDS011;2451;49.970;9.068;2023-01-10T16:00:46;17.17;;;4.55;;
4873;SDS011;2451;49.970;9.068;2023-01-10T16:03:20;12.65;;;4.68;;
4873;SDS011;2451;49.970;9.068;2023-01-10T16:05:56;17.75;;;4.07;;
4873;SDS011;2451;49.970;9.068;2023-01-10T16:08:24;21.50;;;4.90;;
4873;SDS011;2451;49.970;9.068;2023-01-10T16:10:58;17.27;;;4.30;;
4873;SDS011;2451;49.970;9.068;2023-01-10T16:13:25;18.58;;;6.25;;
4873;SDS011;2451;49.970;9.068;2023-01-10T16:15:52;13.13;;;4.63;;
4873;SDS011;2451;49.970;9.068;2023-01-10T16:18:18;16.48;;;3.83;;
4873;SDS011;2451;49.970;9.068;2023-01-10T16:20:44;14.50;;;5.00;;
4873;SDS011;2451;49.970;9.068;2023-01-10T16:23:12;20.52;;;5.13;;
4873;SDS011;2451;49.970;9.068;2023-01-10T16:25:43;19.88;;;5.88;;
4873;SDS011;2451;49.970;9.068;2023-01-10T16:28:16;17.08;;;5.15;;
4873;SDS011;2451;49.970;9.068;2023-01-10T16:30:44;13.98;;;3.88;;
4873;SDS011;2451;49.970;9.068;2023-01-10T16:33:16;18.48;;;4.78;;
4873;SDS011;2451;49.970;9.068;2023-01-10T16:35:47;17.38;;;6.30;;
4873;SDS011;2451;49.970;9.068;2023-01-10T16:38:14;18.48;;;7.30;;
4873;SDS011;2451;49.970;9.068;2023-01-10T16:40:42;25.08;;;9.43;;
4873;SDS011;2451;49.970;9.068;2023-01-10T16:45:43;22.38;;;9.55;;
4873;SDS011;2451;49.970;9.068;2023-01-10T16:48:10;15.55;;;5.65;;
4873;SDS011;2451;49.970;9.068;2023-01-10T16:50:36;20.45;;;6.10;;
4873;SDS011;2451;49.970;9.068;2023-01-10T16:53:02;19.10;;;6.38;;
4873;SDS011;2451;49.970;9.068;2023-01-10T16:58:13;15.35;;;5.35;;
4873;SDS011;2451;49.970;9.068;2023-01-10T17:00:40;14.85;;;4.97;;
4873;SDS011;2451;49.970;9.068;2023-01-10T17:03:09;20.92;;;5.57;;
4873;SDS011;2451;49.970;9.068;2023-01-10T17:05:38;17.08;;;4.93;;
4873;SDS011;2451;49.970;9.068;2023-01-10T17:08:05;19.48;;;6.90;;
4873;SDS011;2451;49.970;9.068;2023-01-10T17:10:31;18.73;;;5.88;;
4873;SDS011;2451;49.970;9.068;2023-01-10T17:12:59;17.15;;;5.53;;
4873;SDS011;2451;49.970;9.068;2023-01-10T17:15:28;15.93;;;5.13;;
4873;SDS011;2451;49.970;9.068;2023-01-10T17:17:53;19.27;;;5.97;;
4873;SDS011;2451;49.970;9.068;2023-01-10T17:20:19;13.90;;;4.30;;
4873;SDS011;2451;49.970;9.068;2023-01-10T17:22:45;14.07;;;4.85;;
4873;SDS011;2451;49.970;9.068;2023-01-10T17:25:14;19.55;;;5.22;;
4873;SDS011;2451;49.970;9.068;2023-01-10T17:27:41;16.50;;;6.32;;
4873;SDS011;2451;49.970;9.068;2023-01-10T17:30:07;16.80;;;5.13;;
4873;SDS011;2451;49.970;9.068;2023-01-10T17:32:34;13.60;;;4.10;;
4873;SDS011;2451;49.970;9.068;2023-01-10T17:34:59;11.40;;;3.83;;